createdAt,value
2023-05-21T00:00:21.349Z,10.02
2023-05-21T00:01:21.389Z,10.22
2023-05-21T00:02:21.459Z,10.21
2023-05-21T00:03:21.521Z,10.69
2023-05-21T00:04:21.495Z,10.68
2023-05-21T00:05:21.589Z,10.93
2023-05-21T00:06:21.663Z,12.08
2023-05-21T00:07:21.626Z,12.33
2023-05-21T00:08:21.691Z,12.35
2023-05-21T00:09:21.737Z,12.43
2023-05-21T00:10:21.772Z,12.44
2023-05-21T00:11:21.789Z,12.12
2023-05-21T00:12:21.872Z,12.16
2023-05-21T00:13:21.913Z,12.44
2023-05-21T00:14:21.937Z,12.38
2023-05-21T00:15:22.002Z,12.73
2023-05-21T00:16:22.085Z,12.44
2023-05-21T00:17:22.075Z,12.19
2023-05-21T00:18:22.104Z,11.72
2023-05-21T00:19:22.205Z,12.26
2023-05-21T00:20:22.237Z,11.72
2023-05-21T00:21:22.236Z,12.23
2023-05-21T00:22:22.291Z,12.62
2023-05-21T00:23:22.326Z,12.38
2023-05-21T00:24:22.361Z,12.51
2023-05-21T00:25:22.435Z,12.00
2023-05-21T00:26:22.452Z,11.59
2023-05-21T00:27:22.484Z,11.72
2023-05-21T00:28:22.534Z,12.22
2023-05-21T00:29:22.606Z,12.66
2023-05-21T00:30:22.635Z,12.24
2023-05-21T00:31:22.781Z,12.23
2023-05-21T00:32:22.717Z,12.44
2023-05-21T00:33:22.757Z,12.83
2023-05-21T00:34:22.777Z,13.38
2023-05-21T00:35:22.829Z,13.50
2023-05-21T00:36:22.872Z,13.38
2023-05-21T00:37:22.875Z,12.91
2023-05-21T00:38:22.962Z,12.46
2023-05-21T00:39:23.022Z,12.54
2023-05-21T00:40:23.052Z,12.19
2023-05-21T00:41:23.081Z,12.25
2023-05-21T00:42:23.130Z,12.60
2023-05-21T00:43:23.154Z,13.41
2023-05-21T00:44:23.237Z,12.91
2023-05-21T00:45:23.307Z,12.86
2023-05-21T00:46:23.361Z,12.95
2023-05-21T00:47:23.399Z,13.00
2023-05-21T00:48:23.432Z,13.39
2023-05-21T00:49:23.502Z,13.17
2023-05-21T00:50:23.564Z,13.03
2023-05-21T00:51:23.563Z,12.52
2023-05-21T00:52:23.640Z,12.35
2023-05-21T00:53:23.680Z,12.62
2023-05-21T00:54:23.701Z,12.77
2023-05-21T00:55:23.747Z,12.97
2023-05-21T00:56:23.809Z,12.76
2023-05-21T00:57:23.861Z,12.59
2023-05-21T00:58:23.905Z,12.69
2023-05-21T00:59:23.939Z,12.95
2023-05-21T01:00:24.045Z,12.90
2023-05-21T01:01:24.086Z,12.49
2023-05-21T01:02:24.461Z,13.14
2023-05-21T01:03:24.327Z,13.60
2023-05-21T01:04:24.181Z,13.70
2023-05-21T01:05:24.230Z,13.53
2023-05-21T01:06:24.259Z,13.45
2023-05-21T01:07:24.322Z,13.22
2023-05-21T01:08:24.391Z,13.11
2023-05-21T01:09:24.440Z,12.83
2023-05-21T01:10:24.526Z,12.91
2023-05-21T01:11:24.537Z,13.46
2023-05-21T01:12:24.630Z,13.01
2023-05-21T01:13:24.639Z,13.13
2023-05-21T01:14:24.680Z,13.49
2023-05-21T01:15:24.733Z,13.72
2023-05-21T01:16:24.841Z,14.05
2023-05-21T01:17:24.880Z,14.05
2023-05-21T01:18:24.920Z,13.57
2023-05-21T01:19:24.963Z,13.35
2023-05-21T01:20:24.973Z,13.35
2023-05-21T01:21:25.019Z,13.31
2023-05-21T01:22:25.209Z,13.61
2023-05-21T01:23:25.109Z,14.22
2023-05-21T01:24:25.161Z,14.86
2023-05-21T01:25:25.279Z,14.76
2023-05-21T01:26:25.271Z,15.20
2023-05-21T01:27:25.354Z,14.79
2023-05-21T01:28:25.417Z,14.55
2023-05-21T01:29:25.468Z,14.98
2023-05-21T01:30:25.510Z,15.36
2023-05-21T01:31:25.573Z,15.72
2023-05-21T01:32:25.603Z,15.56
2023-05-21T01:33:25.678Z,14.93
2023-05-21T01:34:25.686Z,15.79
2023-05-21T01:35:25.755Z,15.95
2023-05-21T01:36:25.814Z,16.33
2023-05-21T01:37:25.835Z,15.94
2023-05-21T01:38:25.903Z,15.17
2023-05-21T01:39:25.953Z,14.91
2023-05-21T01:40:26.005Z,15.40
2023-05-21T01:41:26.070Z,16.10
2023-05-21T01:42:26.123Z,16.77
2023-05-21T01:43:26.172Z,16.28
2023-05-21T01:44:26.199Z,16.13
2023-05-21T01:45:26.235Z,15.95
2023-05-21T01:46:26.349Z,15.92
2023-05-21T01:47:26.360Z,16.56
2023-05-21T01:48:26.364Z,16.38
2023-05-21T01:49:26.401Z,16.15
2023-05-21T01:50:26.495Z,15.68
2023-05-21T01:51:26.509Z,15.92
2023-05-21T01:52:26.581Z,16.03
2023-05-21T01:53:26.657Z,15.56
2023-05-21T01:54:26.718Z,15.52
2023-05-21T01:55:26.757Z,16.15
2023-05-21T01:56:26.829Z,16.39
2023-05-21T01:57:26.876Z,16.46
2023-05-21T01:58:26.934Z,16.11
2023-05-21T01:59:27.005Z,15.92
2023-05-21T02:00:27.165Z,15.51
2023-05-21T02:01:27.147Z,15.91
2023-05-21T02:02:27.187Z,15.93
2023-05-21T02:03:27.281Z,15.48
2023-05-21T02:04:27.235Z,15.58
2023-05-21T02:05:27.317Z,15.90
2023-05-21T02:06:27.340Z,16.18
2023-05-21T02:07:27.379Z,16.25
2023-05-21T02:08:27.424Z,16.09
2023-05-21T02:09:27.483Z,15.97
2023-05-21T02:10:27.576Z,16.36
2023-05-21T02:11:27.571Z,16.51
2023-05-21T02:12:27.638Z,16.72
2023-05-21T02:13:27.677Z,16.47
2023-05-21T02:14:27.734Z,16.36
2023-05-21T02:15:27.790Z,16.46
2023-05-21T02:16:27.898Z,16.14
2023-05-21T02:17:27.883Z,16.36
2023-05-21T02:18:27.914Z,16.58
2023-05-21T02:19:28.013Z,16.58
2023-05-21T02:20:28.026Z,16.26
2023-05-21T02:21:28.084Z,16.23
2023-05-21T02:22:28.127Z,16.21
2023-05-21T02:23:28.155Z,16.70
2023-05-21T02:24:28.218Z,17.22
2023-05-21T02:25:28.269Z,16.85
2023-05-21T02:26:28.338Z,16.87
2023-05-21T02:27:28.371Z,17.07
2023-05-21T02:28:28.424Z,16.94
2023-05-21T02:29:28.447Z,16.54
2023-05-21T02:30:28.516Z,16.25
2023-05-21T02:31:28.568Z,16.28
2023-05-21T02:32:28.639Z,16.27
2023-05-21T02:33:28.662Z,16.36
2023-05-21T02:34:28.764Z,16.46
2023-05-21T02:35:28.732Z,16.37
2023-05-21T02:36:28.844Z,16.42
2023-05-21T02:37:28.860Z,16.29
2023-05-21T02:38:28.895Z,16.01
2023-05-21T02:39:28.933Z,16.43
2023-05-21T02:40:28.991Z,16.51
2023-05-21T02:41:29.028Z,16.45
2023-05-21T02:42:29.095Z,16.85
2023-05-21T02:43:29.142Z,16.84
2023-05-21T02:44:29.181Z,16.91
2023-05-21T02:45:29.380Z,16.54
2023-05-21T02:46:29.462Z,16.51
2023-05-21T02:47:29.397Z,16.57
2023-05-21T02:48:29.376Z,16.52
2023-05-21T02:49:29.418Z,16.53
2023-05-21T02:50:29.478Z,16.44
2023-05-21T02:51:29.526Z,16.13
2023-05-21T02:52:29.584Z,16.65
2023-05-21T02:53:29.602Z,16.26
2023-05-21T02:54:30.188Z,16.65
2023-05-21T02:55:29.699Z,16.57
2023-05-21T02:56:29.749Z,16.57
2023-05-21T02:57:29.793Z,16.70
2023-05-21T02:58:29.870Z,16.52
2023-05-21T02:59:29.881Z,16.62
2023-05-21T03:00:29.942Z,16.97
2023-05-21T03:01:30.007Z,16.87
2023-05-21T03:02:30.052Z,16.68
2023-05-21T03:03:30.286Z,16.50
2023-05-21T03:04:30.160Z,16.19
2023-05-21T03:05:30.210Z,16.34
2023-05-21T03:06:30.228Z,16.76
2023-05-21T03:07:30.261Z,16.41
2023-05-21T03:08:30.341Z,16.16
2023-05-21T03:09:30.370Z,16.42
2023-05-21T03:10:30.446Z,16.73
2023-05-21T03:11:30.456Z,16.65
2023-05-21T03:12:30.487Z,16.30
2023-05-21T03:13:30.569Z,16.24
2023-05-21T03:14:30.598Z,15.89
2023-05-21T03:15:30.647Z,15.98
2023-05-21T03:16:30.647Z,15.72
2023-05-21T03:17:30.665Z,15.66
2023-05-21T03:18:30.690Z,15.87
2023-05-21T03:19:30.798Z,15.65
2023-05-21T03:20:30.794Z,15.48
2023-05-21T03:21:30.813Z,15.46
2023-05-21T03:22:30.868Z,15.89
2023-05-21T03:23:30.909Z,16.21
2023-05-21T03:24:30.960Z,15.44
2023-05-21T03:25:31.009Z,15.36
2023-05-21T03:26:31.030Z,15.34
2023-05-21T03:27:31.036Z,15.09
2023-05-21T03:28:31.107Z,15.16
2023-05-21T03:29:31.137Z,15.42
2023-05-21T03:30:31.190Z,15.17
2023-05-21T03:31:31.268Z,15.06
2023-05-21T03:32:31.305Z,15.37
2023-05-21T03:33:32.224Z,15.58
2023-05-21T03:34:31.349Z,15.56
2023-05-21T03:35:31.358Z,15.55
2023-05-21T03:36:31.366Z,15.66
2023-05-21T03:37:31.413Z,15.87
2023-05-21T03:38:31.450Z,15.76
2023-05-21T03:39:31.561Z,16.15
2023-05-21T03:40:31.555Z,16.18
2023-05-21T03:41:31.615Z,16.55
2023-05-21T03:42:31.665Z,16.35
2023-05-21T03:43:31.706Z,16.17
2023-05-21T03:44:31.717Z,16.26
2023-05-21T03:45:31.786Z,16.09
2023-05-21T03:46:31.883Z,16.09
2023-05-21T03:47:31.920Z,16.03
2023-05-21T03:48:31.867Z,15.91
2023-05-21T03:49:31.936Z,15.78
2023-05-21T03:50:31.972Z,15.64
2023-05-21T03:51:32.049Z,16.12
2023-05-21T03:52:32.063Z,16.03
2023-05-21T03:53:32.110Z,15.76
2023-05-21T03:54:32.152Z,16.05
2023-05-21T03:55:32.227Z,15.63
2023-05-21T03:56:32.216Z,15.59
2023-05-21T03:57:32.313Z,15.82
2023-05-21T03:58:32.302Z,15.59
2023-05-21T03:59:32.368Z,15.31
2023-05-21T04:00:32.410Z,15.66
2023-05-21T04:01:32.446Z,15.44
2023-05-21T04:02:32.580Z,15.48
2023-05-21T04:03:32.582Z,15.13
2023-05-21T04:04:32.594Z,15.33
2023-05-21T04:05:32.629Z,15.50
2023-05-21T04:06:32.653Z,15.28
2023-05-21T04:07:32.694Z,15.62
2023-05-21T04:08:32.730Z,15.90
2023-05-21T04:09:33.907Z,16.08
2023-05-21T04:10:32.941Z,15.14
2023-05-21T04:11:32.993Z,14.97
2023-05-21T04:12:33.040Z,15.09
2023-05-21T04:13:33.060Z,14.85
2023-05-21T04:14:33.085Z,15.27
2023-05-21T04:15:33.117Z,15.33
2023-05-21T04:16:33.193Z,15.28
2023-05-21T04:17:33.235Z,14.68
2023-05-21T04:18:33.248Z,14.54
2023-05-21T04:19:33.418Z,14.39
2023-05-21T04:20:33.293Z,14.42
2023-05-21T04:21:33.297Z,14.47
2023-05-21T04:22:33.298Z,15.01
2023-05-21T04:23:33.314Z,15.22
2023-05-21T04:24:33.317Z,15.24
2023-05-21T04:25:33.401Z,15.07
2023-05-21T04:26:33.321Z,15.38
2023-05-21T04:27:33.408Z,14.78
2023-05-21T04:28:33.341Z,15.07
2023-05-21T04:29:33.383Z,15.06
2023-05-21T04:30:33.408Z,15.40
2023-05-21T04:31:33.469Z,15.63
2023-05-21T04:32:33.512Z,15.57
2023-05-21T04:33:33.470Z,15.80
2023-05-21T04:34:33.462Z,15.80
2023-05-21T04:35:33.714Z,15.92
2023-05-21T04:36:33.537Z,15.84
2023-05-21T04:37:33.575Z,15.94
2023-05-21T04:38:33.639Z,16.16
2023-05-21T04:39:33.651Z,16.10
2023-05-21T04:40:33.698Z,15.97
2023-05-21T04:41:33.656Z,16.47
2023-05-21T04:42:33.631Z,16.38
2023-05-21T04:43:33.646Z,15.95
2023-05-21T04:44:33.618Z,16.19
2023-05-21T04:45:33.927Z,16.28
2023-05-21T04:46:33.612Z,16.26
2023-05-21T04:47:33.632Z,16.44
2023-05-21T04:48:33.597Z,16.68
2023-05-21T04:49:33.567Z,16.95
2023-05-21T04:50:33.567Z,17.27
2023-05-21T04:51:33.551Z,17.44
2023-05-21T04:52:33.547Z,17.12
2023-05-21T04:53:33.569Z,17.13
2023-05-21T04:54:33.544Z,17.24
2023-05-21T04:55:33.558Z,17.24
2023-05-21T04:56:33.841Z,17.21
2023-05-21T04:57:33.844Z,17.41
2023-05-21T04:58:33.495Z,17.23
2023-05-21T04:59:33.437Z,17.17
2023-05-21T05:00:33.487Z,17.23
2023-05-21T05:01:33.464Z,16.90
2023-05-21T05:02:33.454Z,16.70
2023-05-21T05:03:33.484Z,16.57
2023-05-21T05:04:33.422Z,16.88
2023-05-21T05:05:33.404Z,16.90
2023-05-21T05:06:33.380Z,16.73
2023-05-21T05:07:33.379Z,16.99
2023-05-21T05:08:33.349Z,16.81
2023-05-21T05:09:33.373Z,17.07
2023-05-21T05:10:33.344Z,17.19
2023-05-21T05:11:33.354Z,17.36
2023-05-21T05:12:33.320Z,17.63
2023-05-21T05:13:33.308Z,17.06
2023-05-21T05:14:33.284Z,17.08
2023-05-21T05:15:33.305Z,17.30
2023-05-21T05:16:33.323Z,17.24
2023-05-21T05:17:33.259Z,17.15
2023-05-21T05:18:33.240Z,17.19
2023-05-21T05:19:33.245Z,16.66
2023-05-21T05:20:33.244Z,17.28
2023-05-21T05:21:33.266Z,17.26
2023-05-21T05:22:33.216Z,17.55
2023-05-21T05:23:33.224Z,17.33
2023-05-21T05:24:33.197Z,17.67
2023-05-21T05:25:33.195Z,17.53
2023-05-21T05:26:33.253Z,17.77
2023-05-21T05:27:33.299Z,18.00
2023-05-21T05:28:33.333Z,18.27
2023-05-21T05:29:33.381Z,18.42
2023-05-21T05:30:33.441Z,17.99
2023-05-21T05:31:33.520Z,17.92
2023-05-21T05:32:33.524Z,18.14
2023-05-21T05:33:33.569Z,17.80
2023-05-21T05:34:33.605Z,18.23
2023-05-21T05:35:33.735Z,18.15
2023-05-21T05:36:33.692Z,17.97
2023-05-21T05:37:33.707Z,17.46
2023-05-21T05:38:33.765Z,17.63
2023-05-21T05:39:33.773Z,17.18
2023-05-21T05:40:33.842Z,17.09
2023-05-21T05:41:33.917Z,17.19
2023-05-21T05:42:33.923Z,16.96
2023-05-21T05:43:33.944Z,17.31
2023-05-21T05:44:33.989Z,17.58
2023-05-21T05:45:34.176Z,17.95
2023-05-21T05:46:34.094Z,17.88
2023-05-21T05:47:34.111Z,17.85
2023-05-21T05:48:34.123Z,17.44
2023-05-21T05:49:34.182Z,17.17
2023-05-21T05:50:34.242Z,16.41
2023-05-21T05:51:34.293Z,16.32
2023-05-21T05:52:34.325Z,15.98
2023-05-21T05:53:34.377Z,15.68
2023-05-21T05:54:34.400Z,15.41
2023-05-21T05:55:34.700Z,15.16
2023-05-21T05:56:34.477Z,14.91
2023-05-21T05:57:34.548Z,14.82
2023-05-21T05:58:34.586Z,14.66
2023-05-21T05:59:34.630Z,14.57
2023-05-21T06:00:34.687Z,14.30
2023-05-21T06:01:34.685Z,14.65
2023-05-21T06:02:34.804Z,14.37
2023-05-21T06:03:34.905Z,14.14
2023-05-21T06:04:34.827Z,14.08
2023-05-21T06:05:35.035Z,14.37
2023-05-21T06:06:34.941Z,14.44
2023-05-21T06:07:34.956Z,14.29
2023-05-21T06:08:37.319Z,13.62
2023-05-21T06:09:35.019Z,13.48
2023-05-21T06:10:34.980Z,13.58
2023-05-21T06:11:35.006Z,13.74
2023-05-21T06:12:34.999Z,13.51
2023-05-21T06:13:34.962Z,13.98
2023-05-21T06:14:34.967Z,13.78
2023-05-21T06:15:35.102Z,14.11
2023-05-21T06:16:34.985Z,13.44
2023-05-21T06:17:34.947Z,12.87
2023-05-21T06:18:34.980Z,13.08
2023-05-21T06:19:34.960Z,13.39
2023-05-21T06:20:34.908Z,13.51
2023-05-21T06:21:34.922Z,13.75
2023-05-21T06:22:34.915Z,13.25
2023-05-21T06:23:34.896Z,13.69
2023-05-21T06:24:34.885Z,14.20
2023-05-21T06:25:35.087Z,14.33
2023-05-21T06:26:34.907Z,14.42
2023-05-21T06:27:34.878Z,13.80
2023-05-21T06:28:34.843Z,14.40
2023-05-21T06:29:34.838Z,14.74
2023-05-21T06:30:34.924Z,14.94
2023-05-21T06:31:34.859Z,14.91
2023-05-21T06:32:34.878Z,13.35
2023-05-21T06:33:34.901Z,14.02
2023-05-21T06:34:34.826Z,13.34
2023-05-21T06:35:34.943Z,12.30
2023-05-21T06:36:34.801Z,12.30
2023-05-21T06:37:34.813Z,13.01
2023-05-21T06:38:34.816Z,12.51
2023-05-21T06:39:34.863Z,12.65
2023-05-21T06:40:34.802Z,13.27
2023-05-21T06:41:34.776Z,13.35
2023-05-21T06:42:34.793Z,13.15
2023-05-21T06:43:34.764Z,14.17
2023-05-21T06:44:34.776Z,14.52
2023-05-21T06:45:35.019Z,14.45
2023-05-21T06:46:34.788Z,14.30
2023-05-21T06:47:34.829Z,13.54
2023-05-21T06:48:34.743Z,13.85
2023-05-21T06:49:34.729Z,13.70
2023-05-21T06:50:35.329Z,12.52
2023-05-21T06:51:34.727Z,12.64
2023-05-21T06:52:34.782Z,13.05
2023-05-21T06:53:34.723Z,13.43
2023-05-21T06:54:34.709Z,13.78
2023-05-21T06:55:34.931Z,13.69
2023-05-21T06:56:34.670Z,12.42
2023-05-21T06:57:34.682Z,11.86
2023-05-21T06:58:34.721Z,12.69
2023-05-21T06:59:34.676Z,12.56
2023-05-21T07:00:34.686Z,10.47
2023-05-21T07:01:34.677Z,10.22
2023-05-21T07:02:34.666Z,10.65
2023-05-21T07:03:34.732Z,11.05
2023-05-21T07:04:34.682Z,11.92
2023-05-21T07:05:34.887Z,12.14
2023-05-21T07:06:34.738Z,11.79
2023-05-21T07:07:34.828Z,11.51
2023-05-21T07:08:34.781Z,11.55
2023-05-21T07:09:34.867Z,11.44
2023-05-21T07:10:34.882Z,11.43
2023-05-21T07:11:34.889Z,10.99
2023-05-21T07:12:34.961Z,11.24
2023-05-21T07:13:34.925Z,11.48
2023-05-21T07:14:34.981Z,11.71
2023-05-21T07:15:35.316Z,11.76
2023-05-21T07:16:35.056Z,11.73
2023-05-21T07:17:35.130Z,11.99
2023-05-21T07:18:35.051Z,11.92
2023-05-21T07:19:35.111Z,11.26
2023-05-21T07:20:35.108Z,10.97
2023-05-21T07:21:35.101Z,10.57
2023-05-21T07:22:35.161Z,9.96
2023-05-21T07:23:35.131Z,9.83
2023-05-21T07:24:35.185Z,9.89
2023-05-21T07:25:35.346Z,9.65
2023-05-21T07:26:35.224Z,9.37
2023-05-21T07:27:35.259Z,8.64
2023-05-21T07:28:35.300Z,8.01
2023-05-21T07:29:35.321Z,7.91
2023-05-21T07:30:35.335Z,8.70
2023-05-21T07:31:35.369Z,9.11
2023-05-21T07:32:35.413Z,9.41
2023-05-21T07:33:35.404Z,9.54
2023-05-21T07:34:35.414Z,9.28
2023-05-21T07:35:35.615Z,8.85
2023-05-21T07:36:35.440Z,8.89
2023-05-21T07:37:35.497Z,8.84
2023-05-21T07:38:35.463Z,8.44
2023-05-21T07:39:35.510Z,8.23
2023-05-21T07:40:35.513Z,8.21
2023-05-21T07:41:35.559Z,8.30
2023-05-21T07:42:35.534Z,8.38
2023-05-21T07:43:35.590Z,8.52
2023-05-21T07:44:35.594Z,8.75
2023-05-21T07:45:35.824Z,8.52
2023-05-21T07:46:35.650Z,8.35
2023-05-21T07:47:35.930Z,8.25
2023-05-21T07:48:35.971Z,7.94
2023-05-21T07:49:35.855Z,7.90
2023-05-21T07:50:35.692Z,7.73
2023-05-21T07:51:35.710Z,7.85
2023-05-21T07:52:35.739Z,7.60
2023-05-21T07:53:35.738Z,7.84
2023-05-21T07:54:35.767Z,7.43
2023-05-21T07:55:36.032Z,7.11
2023-05-21T07:56:35.867Z,7.42
2023-05-21T07:57:35.802Z,7.67
2023-05-21T07:58:35.838Z,7.74
2023-05-21T07:59:35.820Z,7.89
2023-05-21T08:00:35.822Z,8.10
2023-05-21T08:01:35.872Z,8.50
2023-05-21T08:02:35.948Z,8.65
2023-05-21T08:03:36.132Z,8.47
2023-05-21T08:04:37.475Z,8.63
2023-05-21T08:05:36.067Z,8.91
2023-05-21T08:06:35.873Z,9.00
2023-05-21T08:07:35.853Z,8.67
2023-05-21T08:08:35.824Z,9.04
2023-05-21T08:09:35.880Z,8.96
2023-05-21T08:10:35.835Z,8.99
2023-05-21T08:11:36.354Z,9.12
2023-05-21T08:12:35.828Z,8.98
2023-05-21T08:13:35.801Z,9.23
2023-05-21T08:14:35.790Z,9.32
2023-05-21T08:15:35.985Z,8.95
2023-05-21T08:16:35.764Z,8.75
2023-05-21T08:17:35.777Z,8.70
2023-05-21T08:18:35.720Z,8.48
2023-05-21T08:19:35.727Z,8.42
2023-05-21T08:20:35.733Z,8.34
2023-05-21T08:21:35.692Z,8.48
2023-05-21T08:22:35.679Z,8.69
2023-05-21T08:23:35.683Z,8.95
2023-05-21T08:24:35.612Z,8.47
2023-05-21T08:25:35.909Z,8.03
2023-05-21T08:26:35.596Z,8.07
2023-05-21T08:27:35.593Z,7.62
2023-05-21T08:28:35.558Z,7.53
2023-05-21T08:29:35.558Z,7.30
2023-05-21T08:30:35.559Z,7.11
2023-05-21T08:31:35.604Z,7.20
2023-05-21T08:32:35.640Z,7.35
2023-05-21T08:33:35.493Z,7.24
2023-05-21T08:34:35.481Z,7.64
2023-05-21T08:35:35.681Z,7.62
2023-05-21T08:36:35.435Z,7.91
2023-05-21T08:37:35.424Z,7.86
2023-05-21T08:38:35.412Z,8.21
2023-05-21T08:39:35.417Z,8.15
2023-05-21T08:40:35.871Z,7.54
2023-05-21T08:41:35.366Z,7.97
2023-05-21T08:42:37.327Z,7.82
2023-05-21T08:43:35.381Z,8.01
2023-05-21T08:44:35.392Z,8.26
2023-05-21T08:45:35.581Z,8.26
2023-05-21T08:46:35.372Z,7.93
2023-05-21T08:47:35.407Z,7.78
2023-05-21T08:48:35.316Z,7.88
2023-05-21T08:49:35.372Z,7.64
2023-05-21T08:50:35.309Z,7.48
2023-05-21T08:51:35.339Z,7.10
2023-05-21T08:52:35.314Z,7.40
2023-05-21T08:53:35.353Z,7.74
2023-05-21T08:54:35.349Z,7.70
2023-05-21T08:55:35.499Z,7.36
2023-05-21T08:56:35.381Z,7.41
2023-05-21T08:57:35.420Z,7.68
2023-05-21T08:58:35.403Z,7.50
2023-05-21T08:59:35.429Z,7.30
2023-05-21T09:00:36.328Z,7.18
2023-05-21T09:01:35.559Z,7.05
2023-05-21T09:02:35.490Z,7.04
2023-05-21T09:03:35.427Z,6.91
2023-05-21T09:04:35.545Z,7.13
2023-05-21T09:05:35.632Z,6.62
2023-05-21T09:06:35.460Z,6.47
2023-05-21T09:07:35.500Z,6.49
2023-05-21T09:08:35.502Z,6.29
2023-05-21T09:09:35.569Z,6.56
2023-05-21T09:10:35.554Z,6.59
2023-05-21T09:11:35.581Z,6.41
2023-05-21T09:12:35.603Z,5.96
2023-05-21T09:13:38.751Z,5.83
2023-05-21T09:14:35.593Z,6.02
2023-05-21T09:15:35.716Z,5.94
2023-05-21T09:16:35.564Z,5.78
2023-05-21T09:17:35.552Z,5.48
2023-05-21T09:18:35.515Z,5.57
2023-05-21T09:19:35.701Z,5.84
2023-05-21T09:20:35.504Z,5.83
2023-05-21T09:21:35.504Z,5.62
2023-05-21T09:22:35.444Z,4.94
2023-05-21T09:23:35.425Z,4.86
2023-05-21T09:24:36.499Z,4.71
2023-05-21T09:25:35.634Z,4.66
2023-05-21T09:26:35.402Z,4.88
2023-05-21T09:27:35.360Z,4.96
2023-05-21T09:28:35.393Z,4.87
2023-05-21T09:29:35.316Z,5.05
2023-05-21T09:30:36.230Z,5.04
2023-05-21T09:31:35.428Z,4.75
2023-05-21T09:32:35.344Z,4.70
2023-05-21T09:33:35.350Z,4.29
2023-05-21T09:34:35.267Z,4.17
2023-05-21T09:35:36.232Z,4.03
2023-05-21T09:36:35.256Z,3.95
2023-05-21T09:37:35.253Z,3.87
2023-05-21T09:38:35.194Z,3.64
2023-05-21T09:39:35.197Z,3.27
2023-05-21T09:40:35.451Z,2.92
2023-05-21T09:41:35.249Z,2.86
2023-05-21T09:42:35.301Z,2.61
2023-05-21T09:43:35.306Z,2.52
2023-05-21T09:44:35.379Z,2.51
2023-05-21T09:45:35.563Z,2.47
2023-05-21T09:46:35.461Z,2.38
2023-05-21T09:47:35.496Z,2.22
2023-05-21T09:48:35.542Z,2.04
2023-05-21T09:49:35.481Z,1.76
2023-05-21T09:50:35.707Z,1.71
2023-05-21T09:51:35.520Z,1.67
2023-05-21T09:52:35.599Z,1.60
2023-05-21T09:53:35.647Z,1.51
2023-05-21T09:54:35.729Z,1.47
2023-05-21T09:55:35.710Z,1.39
2023-05-21T09:56:35.723Z,1.38
2023-05-21T09:57:35.759Z,1.32
2023-05-21T09:58:35.777Z,1.30
2023-05-21T09:59:35.821Z,1.35
2023-05-21T10:00:35.939Z,1.39
2023-05-21T10:01:35.939Z,1.36
2023-05-21T10:02:35.949Z,1.31
2023-05-21T10:03:35.904Z,1.38
2023-05-21T10:04:35.966Z,1.27
2023-05-21T10:05:35.995Z,1.19
2023-05-21T10:06:35.990Z,1.12
2023-05-21T10:07:36.026Z,1.09
2023-05-21T10:08:36.037Z,1.12
2023-05-21T10:09:36.089Z,1.12
2023-05-21T10:10:36.282Z,0.97
2023-05-21T10:11:36.179Z,1.02
2023-05-21T10:12:36.144Z,1.14
2023-05-21T10:13:36.172Z,1.04
2023-05-21T10:14:36.205Z,0.77
2023-05-21T10:15:36.190Z,0.68
2023-05-21T10:16:36.305Z,0.72
2023-05-21T10:17:36.267Z,0.69
2023-05-21T10:18:36.300Z,0.69
2023-05-21T10:19:36.288Z,0.70
2023-05-21T10:20:36.678Z,0.66
2023-05-21T10:21:36.355Z,0.65
2023-05-21T10:22:36.376Z,0.70
2023-05-21T10:23:36.383Z,0.72
2023-05-21T10:24:36.399Z,0.79
2023-05-21T10:25:36.434Z,0.83
2023-05-21T10:26:36.435Z,0.85
2023-05-21T10:27:36.504Z,0.88
2023-05-21T10:28:36.477Z,0.75
2023-05-21T10:29:36.571Z,0.71
2023-05-21T10:30:36.727Z,0.72
2023-05-21T10:31:36.622Z,0.72
2023-05-21T10:32:36.730Z,0.77
2023-05-21T10:33:36.660Z,0.83
2023-05-21T10:34:36.667Z,0.76
2023-05-21T10:35:36.840Z,0.69
2023-05-21T10:36:36.736Z,0.64
2023-05-21T10:37:36.773Z,0.62
2023-05-21T10:38:36.788Z,0.63
2023-05-21T10:39:36.777Z,0.64
2023-05-21T10:40:37.081Z,0.66
2023-05-21T10:41:36.857Z,0.67
2023-05-21T10:42:36.863Z,0.64
2023-05-21T10:43:36.877Z,0.58
2023-05-21T10:44:36.922Z,0.57
2023-05-21T10:45:36.969Z,0.55
2023-05-21T10:46:36.960Z,0.55
2023-05-21T10:47:37.010Z,0.57
2023-05-21T10:48:37.018Z,0.58
2023-05-21T10:49:37.014Z,0.57
2023-05-21T10:50:37.285Z,0.51
2023-05-21T10:51:37.075Z,0.51
2023-05-21T10:52:37.102Z,0.51
2023-05-21T10:53:37.103Z,0.57
2023-05-21T10:54:37.156Z,0.52
2023-05-21T10:55:37.191Z,0.51
2023-05-21T10:56:37.186Z,0.53
2023-05-21T10:57:37.223Z,0.52
2023-05-21T10:58:37.246Z,0.52
2023-05-21T10:59:37.275Z,0.52
2023-05-21T11:00:37.487Z,0.52
2023-05-21T11:01:37.418Z,0.52
2023-05-21T11:02:37.507Z,0.53
2023-05-21T11:03:37.931Z,0.53
2023-05-21T11:04:37.441Z,0.51
2023-05-21T11:05:37.452Z,0.52
2023-05-21T11:06:37.492Z,0.54
2023-05-21T11:07:37.502Z,0.50
2023-05-21T11:08:37.612Z,0.52
2023-05-21T11:09:37.572Z,0.54
2023-05-21T11:10:37.892Z,0.52
2023-05-21T11:11:37.616Z,0.51
2023-05-21T11:12:37.604Z,0.50
2023-05-21T11:13:37.662Z,0.53
2023-05-21T11:14:37.688Z,0.56
2023-05-21T11:15:37.716Z,0.56
2023-05-21T11:16:37.826Z,0.55
2023-05-21T11:17:37.771Z,0.52
2023-05-21T11:18:37.788Z,0.50
2023-05-21T11:19:38.146Z,0.53
2023-05-21T11:20:38.022Z,0.52
2023-05-21T11:21:37.880Z,0.53
2023-05-21T11:22:37.888Z,0.56
2023-05-21T11:23:37.925Z,0.53
2023-05-21T11:24:37.955Z,0.51
2023-05-21T11:25:37.941Z,0.52
2023-05-21T11:26:38.016Z,0.53
2023-05-21T11:27:38.074Z,0.51
2023-05-21T11:28:38.094Z,0.51
2023-05-21T11:29:38.080Z,0.50
2023-05-21T11:30:40.265Z,0.51
2023-05-21T11:31:38.288Z,0.54
2023-05-21T11:32:38.122Z,0.52
2023-05-21T11:33:38.033Z,0.50
2023-05-21T11:34:38.029Z,0.50
2023-05-21T11:35:38.003Z,0.52
2023-05-21T11:36:37.944Z,0.52
2023-05-21T11:37:37.934Z,0.51
2023-05-21T11:38:37.902Z,0.53
2023-05-21T11:39:37.896Z,0.51
2023-05-21T11:40:38.046Z,0.50
2023-05-21T11:41:37.877Z,0.51
2023-05-21T11:42:37.850Z,0.50
2023-05-21T11:43:37.806Z,0.52
2023-05-21T11:44:37.816Z,0.53
2023-05-21T11:45:37.770Z,0.52
2023-05-21T11:46:37.746Z,0.51
2023-05-21T11:47:37.846Z,0.51
2023-05-21T11:48:37.719Z,0.51
2023-05-21T11:49:37.710Z,0.50
2023-05-21T11:50:37.920Z,0.51
2023-05-21T11:51:37.634Z,0.51
2023-05-21T11:52:37.613Z,0.57
2023-05-21T11:53:37.591Z,0.51
2023-05-21T11:54:37.575Z,0.52
2023-05-21T11:55:37.525Z,0.52
2023-05-21T11:56:37.560Z,0.51
2023-05-21T11:57:37.511Z,0.54
2023-05-21T11:58:37.491Z,0.53
2023-05-21T11:59:37.456Z,0.50
2023-05-21T12:00:38.014Z,0.54
2023-05-21T12:01:37.418Z,0.57
2023-05-21T12:02:37.450Z,0.56
2023-05-21T12:03:37.469Z,0.55
2023-05-21T12:04:37.356Z,0.54
2023-05-21T12:05:37.339Z,0.55
2023-05-21T12:06:37.319Z,0.56
2023-05-21T12:07:37.273Z,0.53
2023-05-21T12:08:37.248Z,0.54
2023-05-21T12:09:37.219Z,0.50
2023-05-21T12:10:37.575Z,0.51
2023-05-21T12:11:37.299Z,0.53
2023-05-21T12:12:53.367Z,0.59
2023-05-21T12:13:38.312Z,0.57
2023-05-21T12:14:37.290Z,0.51
2023-05-21T12:15:37.227Z,0.48
2023-05-21T12:16:37.255Z,0.48
2023-05-21T12:17:37.230Z,0.46
2023-05-21T12:18:37.186Z,0.50
2023-05-21T12:19:37.152Z,0.50
2023-05-21T12:20:37.471Z,0.53
2023-05-21T12:21:37.120Z,0.53
2023-05-21T12:22:37.094Z,0.52
2023-05-21T12:23:37.092Z,0.55
2023-05-21T12:24:37.095Z,0.55
2023-05-21T12:25:37.125Z,0.58
2023-05-21T12:26:37.167Z,0.62
2023-05-21T12:27:37.179Z,0.60
2023-05-21T12:28:37.221Z,0.62
2023-05-21T12:29:37.258Z,0.62
2023-05-21T12:30:37.388Z,0.64
2023-05-21T12:31:37.450Z,0.66
2023-05-21T12:32:37.338Z,0.64
2023-05-21T12:33:37.389Z,0.64
2023-05-21T12:34:37.431Z,0.64
2023-05-21T12:35:37.426Z,0.64
2023-05-21T12:36:37.452Z,0.56
2023-05-21T12:37:37.506Z,0.54
2023-05-21T12:38:37.505Z,0.55
2023-05-21T12:39:37.514Z,0.57
2023-05-21T12:40:37.976Z,0.56
2023-05-21T12:41:37.584Z,0.55
2023-05-21T12:42:37.698Z,0.58
2023-05-21T12:43:37.661Z,0.60
2023-05-21T12:44:37.659Z,0.62
2023-05-21T12:45:37.699Z,0.64
2023-05-21T12:46:37.871Z,0.65
2023-05-21T12:47:37.901Z,0.67
2023-05-21T12:48:37.807Z,0.70
2023-05-21T12:49:37.840Z,0.72
2023-05-21T12:50:38.022Z,0.77
2023-05-21T12:51:37.869Z,0.81
2023-05-21T12:52:37.938Z,0.82
2023-05-21T12:53:37.973Z,0.89
2023-05-21T12:54:37.970Z,0.92
2023-05-21T12:55:38.087Z,0.96
2023-05-21T12:56:38.087Z,0.97
2023-05-21T12:57:38.074Z,0.99
2023-05-21T12:58:38.135Z,0.97
2023-05-21T12:59:38.155Z,1.07
2023-05-21T13:00:38.470Z,1.14
2023-05-21T13:01:38.223Z,1.19
2023-05-21T13:02:38.259Z,1.20
2023-05-21T13:03:38.277Z,1.24